sensor_id;sensor_type;location;lat;lon;timestamp;pressure;altitude;pressure_sealevel;temperature;humidity
69173;BME280;56280;49.662;8.408;2024-02-28T00:01:52;100872.66;;;4.66;100.00
69173;BME280;56280;49.662;8.408;2024-02-28T00:04:18;100880.03;;;4.77;100.00
69173;BME280;56280;49.662;8.408;2024-02-28T00:06:44;100891.69;;;4.89;100.00
69173;BME280;56280;49.662;8.408;2024-02-28T00:09:11;100903.63;;;4.79;100.00
69173;BME280;56280;49.662;8.408;2024-02-28T00:11:42;100899.66;;;4.70;100.00
69173;BME280;56280;49.662;8.408;2024-02-28T00:14:07;100885.66;;;4.52;100.00
69173;BME280;56280;49.662;8.408;2024-02-28T00:16:33;100913.22;;;4.62;100.00
69173;BME280;56280;49.662;8.408;2024-02-28T00:18:58;100896.66;;;4.60;100.00
69173;BME280;56280;49.662;8.408;2024-02-28T00:21:24;100888.19;;;4.36;100.00
69173;BME280;56280;49.662;8.408;2024-02-28T00:23:49;100889.97;;;4.35;100.00
69173;BME280;56280;49.662;8.408;2024-02-28T00:26:15;100910.72;;;4.42;100.00
69173;BME280;56280;49.662;8.408;2024-02-28T00:28:40;100850.03;;;3.91;100.00
69173;BME280;56280;49.662;8.408;2024-02-28T00:31:05;100907.00;;;4.28;100.00
69173;BME280;56280;49.662;8.408;2024-02-28T00:33:31;100893.66;;;4.14;100.00
69173;BME280;56280;49.662;8.408;2024-02-28T00:35:56;100900.56;;;4.34;100.00
69173;BME280;56280;49.662;8.408;2024-02-28T00:38:21;100910.34;;;4.49;100.00
69173;BME280;56280;49.662;8.408;2024-02-28T00:40:47;100915.75;;;4.46;100.00
69173;BME280;56280;49.662;8.408;2024-02-28T00:43:12;100907.91;;;4.27;100.00
69173;BME280;56280;49.662;8.408;2024-02-28T00:45:37;100904.03;;;4.34;100.00
69173;BME280;56280;49.662;8.408;2024-02-28T00:48:03;100920.63;;;4.36;100.00
69173;BME280;56280;49.662;8.408;2024-02-28T00:50:28;100924.03;;;4.19;100.00
69173;BME280;56280;49.662;8.408;2024-02-28T00:52:54;100919.94;;;3.95;100.00
69173;BME280;56280;49.662;8.408;2024-02-28T00:55:19;100925.06;;;3.79;100.00
69173;BME280;56280;49.662;8.408;2024-02-28T00:57:44;100919.78;;;3.79;100.00
69173;BME280;56280;49.662;8.408;2024-02-28T01:00:10;100929.66;;;3.74;100.00
69173;BME280;56280;49.662;8.408;2024-02-28T01:02:35;100939.00;;;3.60;100.00
69173;BME280;56280;49.662;8.408;2024-02-28T01:05:01;100890.53;;;3.28;100.00
69173;BME280;56280;49.662;8.408;2024-02-28T01:07:26;100934.19;;;3.51;100.00
69173;BME280;56280;49.662;8.408;2024-02-28T01:09:51;100949.88;;;3.72;100.00
69173;BME280;56280;49.662;8.408;2024-02-28T01:12:16;100934.81;;;3.56;100.00
69173;BME280;56280;49.662;8.408;2024-02-28T01:14:42;100945.72;;;3.47;100.00
69173;BME280;56280;49.662;8.408;2024-02-28T01:17:07;100945.06;;;3.62;100.00
69173;BME280;56280;49.662;8.408;2024-02-28T01:19:32;100961.50;;;3.47;100.00
69173;BME280;56280;49.662;8.408;2024-02-28T01:21:58;100954.13;;;3.35;100.00
69173;BME280;56280;49.662;8.408;2024-02-28T01:24:23;100948.03;;;3.34;100.00
69173;BME280;56280;49.662;8.408;2024-02-28T01:26:48;100954.06;;;3.36;100.00
69173;BME280;56280;49.662;8.408;2024-02-28T01:29:14;100957.06;;;3.68;100.00
69173;BME280;56280;49.662;8.408;2024-02-28T01:31:39;100953.56;;;3.88;100.00
69173;BME280;56280;49.662;8.408;2024-02-28T01:34:04;100931.31;;;3.56;100.00
69173;BME280;56280;49.662;8.408;2024-02-28T01:36:30;100919.81;;;3.39;100.00
69173;BME280;56280;49.662;8.408;2024-02-28T01:38:55;100950.66;;;3.34;100.00
69173;BME280;56280;49.662;8.408;2024-02-28T01:41:20;100933.81;;;3.19;100.00
69173;BME280;56280;49.662;8.408;2024-02-28T01:43:45;100968.09;;;3.56;100.00
69173;BME280;56280;49.662;8.408;2024-02-28T01:46:23;100979.94;;;3.66;100.00
69173;BME280;56280;49.662;8.408;2024-02-28T01:48:49;100924.22;;;3.39;100.00
69173;BME280;56280;49.662;8.408;2024-02-28T01:51:15;100954.13;;;3.35;100.00
69173;BME280;56280;49.662;8.408;2024-02-28T01:53:41;100967.72;;;3.44;100.00
69173;BME280;56280;49.662;8.408;2024-02-28T01:56:07;100970.97;;;3.51;100.00
69173;BME280;56280;49.662;8.408;2024-02-28T01:58:33;100966.16;;;3.40;100.00
69173;BME280;56280;49.662;8.408;2024-02-28T02:01:00;100979.69;;;3.10;100.00
69173;BME280;56280;49.662;8.408;2024-02-28T02:03:26;100926.19;;;2.92;100.00
69173;BME280;56280;49.662;8.408;2024-02-28T02:05:51;100989.47;;;3.27;100.00
69173;BME280;56280;49.662;8.408;2024-02-28T02:08:16;100970.56;;;3.19;100.00
69173;BME280;56280;49.662;8.408;2024-02-28T02:10:42;100970.38;;;3.24;100.00
69173;BME280;56280;49.662;8.408;2024-02-28T02:13:07;100979.75;;;3.29;100.00
69173;BME280;56280;49.662;8.408;2024-02-28T02:15:33;100986.34;;;3.40;100.00
69173;BME280;56280;49.662;8.408;2024-02-28T02:17:58;100974.75;;;3.23;100.00
69173;BME280;56280;49.662;8.408;2024-02-28T02:20:25;100974.22;;;3.15;100.00
69173;BME280;56280;49.662;8.408;2024-02-28T02:22:51;100986.38;;;3.18;100.00
69173;BME280;56280;49.662;8.408;2024-02-28T02:25:17;100970.75;;;3.15;100.00
69173;BME280;56280;49.662;8.408;2024-02-28T02:27:42;100979.94;;;3.25;100.00
69173;BME280;56280;49.662;8.408;2024-02-28T02:30:08;100969.31;;;3.28;100.00
69173;BME280;56280;49.662;8.408;2024-02-28T02:32:33;100979.16;;;3.23;100.00
69173;BME280;56280;49.662;8.408;2024-02-28T02:34:58;100965.69;;;2.89;100.00
69173;BME280;56280;49.662;8.408;2024-02-28T02:37:23;100987.34;;;2.95;100.00
69173;BME280;56280;49.662;8.408;2024-02-28T02:39:49;100919.19;;;2.50;100.00
69173;BME280;56280;49.662;8.408;2024-02-28T02:42:14;100980.06;;;3.42;100.00
69173;BME280;56280;49.662;8.408;2024-02-28T02:44:40;100986.06;;;3.25;100.00
69173;BME280;56280;49.662;8.408;2024-02-28T02:47:05;100980.41;;;2.94;100.00
69173;BME280;56280;49.662;8.408;2024-02-28T02:49:30;100988.34;;;2.70;100.00
69173;BME280;56280;49.662;8.408;2024-02-28T02:51:56;100996.91;;;2.96;100.00
69173;BME280;56280;49.662;8.408;2024-02-28T02:54:21;101002.47;;;3.10;100.00
69173;BME280;56280;49.662;8.408;2024-02-28T02:56:46;101010.47;;;3.07;100.00
69173;BME280;56280;49.662;8.408;2024-02-28T02:59:11;100992.56;;;2.95;100.00
69173;BME280;56280;49.662;8.408;2024-02-28T03:01:37;101015.34;;;2.94;100.00
69173;BME280;56280;49.662;8.408;2024-02-28T03:04:03;101001.94;;;2.80;100.00
69173;BME280;56280;49.662;8.408;2024-02-28T03:06:28;101003.25;;;2.69;100.00
69173;BME280;56280;49.662;8.408;2024-02-28T03:08:53;100986.88;;;2.63;100.00
69173;BME280;56280;49.662;8.408;2024-02-28T03:11:19;100996.75;;;2.78;100.00
69173;BME280;56280;49.662;8.408;2024-02-28T03:13:44;100998.47;;;2.79;100.00
69173;BME280;56280;49.662;8.408;2024-02-28T03:16:09;101007.84;;;2.85;100.00
69173;BME280;56280;49.662;8.408;2024-02-28T03:18:34;101010.03;;;2.96;100.00
69173;BME280;56280;49.662;8.408;2024-02-28T03:21:00;101022.09;;;3.01;100.00
69173;BME280;56280;49.662;8.408;2024-02-28T03:23:25;101018.28;;;2.86;100.00
69173;BME280;56280;49.662;8.408;2024-02-28T03:25:50;101030.94;;;2.99;100.00
69173;BME280;56280;49.662;8.408;2024-02-28T03:28:16;101009.03;;;3.00;100.00
69173;BME280;56280;49.662;8.408;2024-02-28T03:30:41;101019.81;;;3.14;100.00
69173;BME280;56280;49.662;8.408;2024-02-28T03:33:06;101017.31;;;2.89;100.00
69173;BME280;56280;49.662;8.408;2024-02-28T03:35:33;101020.47;;;2.97;100.00
69173;BME280;56280;49.662;8.408;2024-02-28T03:37:58;101034.22;;;3.04;100.00
69173;BME280;56280;49.662;8.408;2024-02-28T03:40:23;101045.44;;;3.07;100.00
69173;BME280;56280;49.662;8.408;2024-02-28T03:42:48;101047.91;;;2.90;100.00
69173;BME280;56280;49.662;8.408;2024-02-28T03:45:14;101026.63;;;3.18;100.00
69173;BME280;56280;49.662;8.408;2024-02-28T03:47:39;101033.72;;;2.94;100.00
69173;BME280;56280;49.662;8.408;2024-02-28T03:50:05;101031.66;;;3.02;100.00
69173;BME280;56280;49.662;8.408;2024-02-28T03:52:31;101044.94;;;2.98;100.00
69173;BME280;56280;49.662;8.408;2024-02-28T03:54:56;101040.69;;;2.95;100.00
69173;BME280;56280;49.662;8.408;2024-02-28T03:57:22;101035.09;;;2.82;100.00
69173;BME280;56280;49.662;8.408;2024-02-28T03:59:48;101043.25;;;2.97;100.00
69173;BME280;56280;49.662;8.408;2024-02-28T04:02:13;101031.16;;;3.15;100.00
69173;BME280;56280;49.662;8.408;2024-02-28T04:04:38;101029.13;;;2.99;100.00
69173;BME280;56280;49.662;8.408;2024-02-28T04:07:03;101030.63;;;3.06;100.00
69173;BME280;56280;49.662;8.408;2024-02-28T04:09:29;101052.47;;;3.07;100.00
69173;BME280;56280;49.662;8.408;2024-02-28T04:11:54;101026.78;;;2.71;100.00
69173;BME280;56280;49.662;8.408;2024-02-28T04:14:19;101017.22;;;2.24;100.00
69173;BME280;56280;49.662;8.408;2024-02-28T04:16:45;101064.81;;;2.37;100.00
69173;BME280;56280;49.662;8.408;2024-02-28T04:19:11;101052.94;;;2.27;100.00
69173;BME280;56280;49.662;8.408;2024-02-28T04:21:36;101075.59;;;2.53;100.00
69173;BME280;56280;49.662;8.408;2024-02-28T04:24:02;101069.84;;;2.43;100.00
69173;BME280;56280;49.662;8.408;2024-02-28T04:26:28;101062.69;;;2.23;100.00
69173;BME280;56280;49.662;8.408;2024-02-28T04:28:54;101049.81;;;2.17;100.00
69173;BME280;56280;49.662;8.408;2024-02-28T04:31:19;101059.56;;;2.37;100.00
69173;BME280;56280;49.662;8.408;2024-02-28T04:33:45;101056.53;;;2.48;100.00
69173;BME280;56280;49.662;8.408;2024-02-28T04:36:10;101076.47;;;2.76;100.00
69173;BME280;56280;49.662;8.408;2024-02-28T04:38:35;101071.50;;;2.68;100.00
69173;BME280;56280;49.662;8.408;2024-02-28T04:41:00;101062.91;;;2.64;100.00
69173;BME280;56280;49.662;8.408;2024-02-28T04:43:26;101067.44;;;2.59;100.00
69173;BME280;56280;49.662;8.408;2024-02-28T04:45:51;101084.84;;;2.62;100.00
69173;BME280;56280;49.662;8.408;2024-02-28T04:48:16;101101.31;;;2.43;100.00
69173;BME280;56280;49.662;8.408;2024-02-28T04:50:41;101102.28;;;2.15;100.00
69173;BME280;56280;49.662;8.408;2024-02-28T04:53:07;101092.03;;;2.09;100.00
69173;BME280;56280;49.662;8.408;2024-02-28T04:55:32;101084.72;;;1.94;100.00
69173;BME280;56280;49.662;8.408;2024-02-28T04:57:57;101079.84;;;1.83;100.00
69173;BME280;56280;49.662;8.408;2024-02-28T05:00:22;101105.47;;;1.75;100.00
69173;BME280;56280;49.662;8.408;2024-02-28T05:02:48;101121.78;;;1.83;100.00
69173;BME280;56280;49.662;8.408;2024-02-28T05:05:13;101119.28;;;2.05;100.00
69173;BME280;56280;49.662;8.408;2024-02-28T05:07:38;101110.28;;;1.87;100.00
69173;BME280;56280;49.662;8.408;2024-02-28T05:10:04;101136.47;;;2.12;100.00
69173;BME280;56280;49.662;8.408;2024-02-28T05:12:30;101141.72;;;2.12;100.00
69173;BME280;56280;49.662;8.408;2024-02-28T05:14:55;101140.59;;;1.94;100.00
69173;BME280;56280;49.662;8.408;2024-02-28T05:17:20;101122.03;;;1.75;100.00
69173;BME280;56280;49.662;8.408;2024-02-28T05:19:46;101134.53;;;1.67;100.00
69173;BME280;56280;49.662;8.408;2024-02-28T05:22:11;101100.19;;;1.50;100.00
69173;BME280;56280;49.662;8.408;2024-02-28T05:24:37;101118.75;;;1.95;100.00
69173;BME280;56280;49.662;8.408;2024-02-28T05:27:02;101098.00;;;1.89;100.00
69173;BME280;56280;49.662;8.408;2024-02-28T05:29:27;101139.81;;;2.41;100.00
69173;BME280;56280;49.662;8.408;2024-02-28T05:31:53;101125.41;;;2.29;100.00
69173;BME280;56280;49.662;8.408;2024-02-28T05:34:18;101145.75;;;2.46;100.00
69173;BME280;56280;49.662;8.408;2024-02-28T05:36:43;101160.69;;;2.44;100.00
69173;BME280;56280;49.662;8.408;2024-02-28T05:39:09;101156.50;;;2.40;100.00
69173;BME280;56280;49.662;8.408;2024-02-28T05:41:34;101109.19;;;2.43;100.00
69173;BME280;56280;49.662;8.408;2024-02-28T05:44:02;101152.50;;;2.77;100.00
69173;BME280;56280;49.662;8.408;2024-02-28T05:46:27;101149.53;;;2.63;100.00
69173;BME280;56280;49.662;8.408;2024-02-28T05:48:53;101107.22;;;2.25;100.00
69173;BME280;56280;49.662;8.408;2024-02-28T05:51:19;101132.25;;;2.57;100.00
69173;BME280;56280;49.662;8.408;2024-02-28T05:53:45;101070.19;;;2.34;100.00
69173;BME280;56280;49.662;8.408;2024-02-28T05:56:10;101108.81;;;2.52;100.00
69173;BME280;56280;49.662;8.408;2024-02-28T05:58:40;101163.66;;;3.06;100.00
69173;BME280;56280;49.662;8.408;2024-02-28T06:01:05;101163.88;;;3.22;100.00
69173;BME280;56280;49.662;8.408;2024-02-28T06:03:32;101125.53;;;2.96;100.00
69173;BME280;56280;49.662;8.408;2024-02-28T06:05:58;101169.38;;;2.94;100.00
69173;BME280;56280;49.662;8.408;2024-02-28T06:08:23;101182.66;;;2.42;100.00
69173;BME280;56280;49.662;8.408;2024-02-28T06:10:48;101195.06;;;2.11;100.00
69173;BME280;56280;49.662;8.408;2024-02-28T06:13:14;101183.06;;;2.04;100.00
69173;BME280;56280;49.662;8.408;2024-02-28T06:15:39;101165.56;;;1.53;100.00
69173;BME280;56280;49.662;8.408;2024-02-28T06:18:05;101184.31;;;1.67;100.00
69173;BME280;56280;49.662;8.408;2024-02-28T06:20:30;101204.69;;;1.86;100.00
69173;BME280;56280;49.662;8.408;2024-02-28T06:22:56;101216.56;;;1.69;100.00
69173;BME280;56280;49.662;8.408;2024-02-28T06:25:21;101215.09;;;1.87;100.00
69173;BME280;56280;49.662;8.408;2024-02-28T06:27:48;101216.53;;;2.23;100.00
69173;BME280;56280;49.662;8.408;2024-02-28T06:30:14;101226.97;;;2.24;100.00
69173;BME280;56280;49.662;8.408;2024-02-28T06:32:40;101212.25;;;2.45;100.00
69173;BME280;56280;49.662;8.408;2024-02-28T06:35:06;101210.03;;;2.82;100.00
69173;BME280;56280;49.662;8.408;2024-02-28T06:37:32;101234.84;;;3.20;100.00
69173;BME280;56280;49.662;8.408;2024-02-28T06:39:57;101228.94;;;3.81;100.00
69173;BME280;56280;49.662;8.408;2024-02-28T06:42:23;101231.41;;;4.07;100.00
69173;BME280;56280;49.662;8.408;2024-02-28T06:44:48;101221.66;;;3.88;100.00
69173;BME280;56280;49.662;8.408;2024-02-28T06:47:13;101217.31;;;3.87;100.00
69173;BME280;56280;49.662;8.408;2024-02-28T06:49:38;101210.34;;;3.65;100.00
69173;BME280;56280;49.662;8.408;2024-02-28T06:52:04;101222.78;;;3.38;100.00
69173;BME280;56280;49.662;8.408;2024-02-28T06:54:30;101247.44;;;3.34;100.00
69173;BME280;56280;49.662;8.408;2024-02-28T06:56:56;101253.41;;;3.61;100.00
69173;BME280;56280;49.662;8.408;2024-02-28T06:59:22;101253.69;;;3.76;100.00
69173;BME280;56280;49.662;8.408;2024-02-28T07:01:47;101236.22;;;3.75;100.00
69173;BME280;56280;49.662;8.408;2024-02-28T07:04:13;101255.91;;;3.87;100.00
69173;BME280;56280;49.662;8.408;2024-02-28T07:06:38;101240.34;;;4.03;100.00
69173;BME280;56280;49.662;8.408;2024-02-28T07:09:03;101264.16;;;4.61;100.00
69173;BME280;56280;49.662;8.408;2024-02-28T07:11:29;101202.34;;;4.51;100.00
69173;BME280;56280;49.662;8.408;2024-02-28T07:13:54;101248.34;;;4.82;100.00
69173;BME280;56280;49.662;8.408;2024-02-28T07:16:19;101249.19;;;4.82;100.00
69173;BME280;56280;49.662;8.408;2024-02-28T07:18:45;101186.84;;;4.04;100.00
69173;BME280;56280;49.662;8.408;2024-02-28T07:21:10;101237.97;;;4.79;100.00
69173;BME280;56280;49.662;8.408;2024-02-28T07:23:39;101256.88;;;5.26;100.00
69173;BME280;56280;49.662;8.408;2024-02-28T07:26:05;101254.41;;;5.41;100.00
69173;BME280;56280;49.662;8.408;2024-02-28T07:28:31;101233.50;;;5.38;100.00
69173;BME280;56280;49.662;8.408;2024-02-28T07:30:56;101234.59;;;5.70;100.00
69173;BME280;56280;49.662;8.408;2024-02-28T07:33:21;101227.47;;;5.53;100.00
69173;BME280;56280;49.662;8.408;2024-02-28T07:35:47;101235.84;;;5.80;100.00
69173;BME280;56280;49.662;8.408;2024-02-28T07:38:13;101252.19;;;6.06;100.00
69173;BME280;56280;49.662;8.408;2024-02-28T07:40:38;101251.66;;;5.80;100.00
69173;BME280;56280;49.662;8.408;2024-02-28T07:43:04;101257.91;;;5.41;100.00
69173;BME280;56280;49.662;8.408;2024-02-28T07:45:29;101261.97;;;5.48;100.00
69173;BME280;56280;49.662;8.408;2024-02-28T07:47:54;101247.94;;;5.29;100.00
69173;BME280;56280;49.662;8.408;2024-02-28T07:50:19;101253.13;;;5.11;100.00
69173;BME280;56280;49.662;8.408;2024-02-28T07:52:45;101257.28;;;4.78;100.00
69173;BME280;56280;49.662;8.408;2024-02-28T07:55:10;101267.84;;;4.57;100.00
69173;BME280;56280;49.662;8.408;2024-02-28T07:57:35;101267.19;;;4.72;100.00
69173;BME280;56280;49.662;8.408;2024-02-28T08:00:00;101268.34;;;4.86;100.00
69173;BME280;56280;49.662;8.408;2024-02-28T08:02:26;101268.16;;;5.09;100.00
69173;BME280;56280;49.662;8.408;2024-02-28T08:04:51;101272.41;;;4.93;100.00
69173;BME280;56280;49.662;8.408;2024-02-28T08:07:16;101274.78;;;4.99;100.00
69173;BME280;56280;49.662;8.408;2024-02-28T08:09:41;101244.41;;;4.71;100.00
69173;BME280;56280;49.662;8.408;2024-02-28T08:12:07;101269.16;;;4.67;100.00
69173;BME280;56280;49.662;8.408;2024-02-28T08:14:32;101269.03;;;4.50;100.00
69173;BME280;56280;49.662;8.408;2024-02-28T08:16:57;101280.59;;;4.46;100.00
69173;BME280;56280;49.662;8.408;2024-02-28T08:19:23;101273.38;;;4.30;100.00
69173;BME280;56280;49.662;8.408;2024-02-28T08:21:48;101287.19;;;4.56;100.00
69173;BME280;56280;49.662;8.408;2024-02-28T08:24:13;101263.78;;;4.50;100.00
69173;BME280;56280;49.662;8.408;2024-02-28T08:26:38;101272.59;;;4.49;100.00
69173;BME280;56280;49.662;8.408;2024-02-28T08:29:06;101287.09;;;4.78;100.00
69173;BME280;56280;49.662;8.408;2024-02-28T08:31:31;101270.97;;;4.86;100.00
69173;BME280;56280;49.662;8.408;2024-02-28T08:33:56;101280.84;;;4.81;100.00
69173;BME280;56280;49.662;8.408;2024-02-28T08:36:22;101286.88;;;5.03;100.00
69173;BME280;56280;49.662;8.408;2024-02-28T08:38:47;101283.88;;;4.92;100.00
69173;BME280;56280;49.662;8.408;2024-02-28T08:41:12;101283.09;;;4.90;100.00
69173;BME280;56280;49.662;8.408;2024-02-28T08:43:39;101291.47;;;5.19;100.00
69173;BME280;56280;49.662;8.408;2024-02-28T08:46:04;101292.13;;;5.03;100.00
69173;BME280;56280;49.662;8.408;2024-02-28T08:48:31;101304.66;;;4.98;100.00
69173;BME280;56280;49.662;8.408;2024-02-28T08:50:57;101294.59;;;4.87;100.00
69173;BME280;56280;49.662;8.408;2024-02-28T08:53:22;101277.84;;;5.09;100.00
69173;BME280;56280;49.662;8.408;2024-02-28T08:55:47;101294.84;;;5.02;100.00
69173;BME280;56280;49.662;8.408;2024-02-28T08:58:12;101289.50;;;5.03;100.00
69173;BME280;56280;49.662;8.408;2024-02-28T09:00:38;101308.22;;;4.97;100.00
69173;BME280;56280;49.662;8.408;2024-02-28T09:03:04;101291.88;;;4.49;100.00
69173;BME280;56280;49.662;8.408;2024-02-28T09:05:29;101311.81;;;4.55;100.00
69173;BME280;56280;49.662;8.408;2024-02-28T09:07:54;101306.53;;;4.55;100.00
69173;BME280;56280;49.662;8.408;2024-02-28T09:10:20;101299.41;;;4.57;100.00
69173;BME280;56280;49.662;8.408;2024-02-28T09:12:49;101272.53;;;4.50;100.00
69173;BME280;56280;49.662;8.408;2024-02-28T09:15:14;101316.69;;;4.64;100.00
69173;BME280;56280;49.662;8.408;2024-02-28T09:17:40;101297.31;;;4.65;100.00
69173;BME280;56280;49.662;8.408;2024-02-28T09:20:05;101302.75;;;4.81;100.00
69173;BME280;56280;49.662;8.408;2024-02-28T09:22:31;101328.44;;;4.97;100.00
69173;BME280;56280;49.662;8.408;2024-02-28T09:24:57;101323.03;;;5.00;100.00
69173;BME280;56280;49.662;8.408;2024-02-28T09:27:22;101325.59;;;5.01;100.00
69173;BME280;56280;49.662;8.408;2024-02-28T09:29:47;101330.03;;;5.20;100.00
69173;BME280;56280;49.662;8.408;2024-02-28T09:32:12;101346.09;;;4.95;100.00
69173;BME280;56280;49.662;8.408;2024-02-28T09:34:39;101345.56;;;5.26;100.00
69173;BME280;56280;49.662;8.408;2024-02-28T09:37:05;101334.25;;;5.24;100.00
69173;BME280;56280;49.662;8.408;2024-02-28T09:39:30;101356.97;;;5.26;100.00
69173;BME280;56280;49.662;8.408;2024-02-28T09:41:56;101346.81;;;5.38;100.00
69173;BME280;56280;49.662;8.408;2024-02-28T09:44:22;101331.22;;;5.33;100.00
69173;BME280;56280;49.662;8.408;2024-02-28T09:46:51;101275.00;;;5.33;100.00
69173;BME280;56280;49.662;8.408;2024-02-28T09:49:17;101320.94;;;5.65;100.00
69173;BME280;56280;49.662;8.408;2024-02-28T09:51:43;101348.44;;;5.59;100.00
69173;BME280;56280;49.662;8.408;2024-02-28T09:54:09;101344.78;;;5.81;100.00
69173;BME280;56280;49.662;8.408;2024-02-28T09:56:34;101341.88;;;5.87;100.00
69173;BME280;56280;49.662;8.408;2024-02-28T09:59:00;101346.72;;;5.58;100.00
69173;BME280;56280;49.662;8.408;2024-02-28T10:01:28;101354.44;;;5.82;100.00
69173;BME280;56280;49.662;8.408;2024-02-28T10:03:56;101346.22;;;5.88;100.00
69173;BME280;56280;49.662;8.408;2024-02-28T10:06:22;101340.47;;;5.99;100.00
69173;BME280;56280;49.662;8.408;2024-02-28T10:08:48;101329.75;;;6.02;100.00
69173;BME280;56280;49.662;8.408;2024-02-28T10:11:21;101342.69;;;6.26;100.00
69173;BME280;56280;49.662;8.408;2024-02-28T10:13:47;101331.53;;;6.01;100.00
69173;BME280;56280;49.662;8.408;2024-02-28T10:16:12;101330.34;;;5.90;100.00
69173;BME280;56280;49.662;8.408;2024-02-28T10:18:39;101337.91;;;5.97;100.00
69173;BME280;56280;49.662;8.408;2024-02-28T10:21:05;101347.44;;;6.00;100.00
69173;BME280;56280;49.662;8.408;2024-02-28T10:23:30;101353.19;;;6.45;100.00
69173;BME280;56280;49.662;8.408;2024-02-28T10:25:56;101335.88;;;6.22;100.00
69173;BME280;56280;49.662;8.408;2024-02-28T10:28:21;101341.28;;;6.18;100.00
69173;BME280;56280;49.662;8.408;2024-02-28T10:30:47;101342.34;;;6.68;100.00
69173;BME280;56280;49.662;8.408;2024-02-28T10:33:15;101357.38;;;6.66;100.00
69173;BME280;56280;49.662;8.408;2024-02-28T10:35:41;101355.16;;;6.59;100.00
69173;BME280;56280;49.662;8.408;2024-02-28T10:38:10;101355.41;;;6.87;100.00
69173;BME280;56280;49.662;8.408;2024-02-28T10:40:35;101353.34;;;6.77;100.00
69173;BME280;56280;49.662;8.408;2024-02-28T10:43:02;101333.00;;;6.61;100.00
69173;BME280;56280;49.662;8.408;2024-02-28T10:45:31;101372.69;;;6.60;100.00
69173;BME280;56280;49.662;8.408;2024-02-28T10:47:57;101362.03;;;6.61;100.00
69173;BME280;56280;49.662;8.408;2024-02-28T10:50:22;101355.56;;;7.02;100.00
69173;BME280;56280;49.662;8.408;2024-02-28T10:52:48;101364.38;;;6.67;100.00
69173;BME280;56280;49.662;8.408;2024-02-28T10:55:20;101355.97;;;6.94;100.00
69173;BME280;56280;49.662;8.408;2024-02-28T10:57:53;101354.25;;;7.44;100.00
69173;BME280;56280;49.662;8.408;2024-02-28T11:00:23;101357.75;;;7.60;100.00
69173;BME280;56280;49.662;8.408;2024-02-28T11:02:48;101349.13;;;7.57;100.00
69173;BME280;56280;49.662;8.408;2024-02-28T11:05:14;101362.09;;;7.61;100.00
69173;BME280;56280;49.662;8.408;2024-02-28T11:07:42;101354.59;;;7.85;100.00
69173;BME280;56280;49.662;8.408;2024-02-28T11:10:08;101357.84;;;8.07;100.00
69173;BME280;56280;49.662;8.408;2024-02-28T11:12:35;101356.63;;;7.80;100.00
69173;BME280;56280;49.662;8.408;2024-02-28T11:15:03;101343.41;;;7.96;100.00
69173;BME280;56280;49.662;8.408;2024-02-28T11:17:32;101330.19;;;7.80;100.00
69173;BME280;56280;49.662;8.408;2024-02-28T11:19:58;101359.25;;;7.48;100.00
69173;BME280;56280;49.662;8.408;2024-02-28T11:22:23;101340.25;;;7.90;100.00
69173;BME280;56280;49.662;8.408;2024-02-28T11:24:49;101357.94;;;8.51;100.00
69173;BME280;56280;49.662;8.408;2024-02-28T11:27:18;101355.03;;;8.56;100.00
69173;BME280;56280;49.662;8.408;2024-02-28T11:29:46;101340.66;;;8.60;100.00
69173;BME280;56280;49.662;8.408;2024-02-28T11:32:15;101355.50;;;8.63;100.00
69173;BME280;56280;49.662;8.408;2024-02-28T11:34:41;101341.69;;;9.02;100.00
69173;BME280;56280;49.662;8.408;2024-02-28T11:37:08;101336.91;;;8.79;100.00
69173;BME280;56280;49.662;8.408;2024-02-28T11:39:34;101347.25;;;8.83;100.00
69173;BME280;56280;49.662;8.408;2024-02-28T11:42:13;101343.97;;;9.23;100.00
69173;BME280;56280;49.662;8.408;2024-02-28T11:44:39;101347.19;;;9.42;100.00
69173;BME280;56280;49.662;8.408;2024-02-28T11:47:05;101349.63;;;9.60;100.00
69173;BME280;56280;49.662;8.408;2024-02-28T11:49:33;101320.81;;;9.68;100.00
69173;BME280;56280;49.662;8.408;2024-02-28T11:51:58;101294.91;;;9.72;100.00
69173;BME280;56280;49.662;8.408;2024-02-28T11:54:24;101335.56;;;9.72;100.00
69173;BME280;56280;49.662;8.408;2024-02-28T11:56:49;101301.31;;;9.55;100.00
69173;BME280;56280;49.662;8.408;2024-02-28T11:59:14;101310.09;;;9.70;100.00
69173;BME280;56280;49.662;8.408;2024-02-28T12:01:41;101325.13;;;10.11;100.00
69173;BME280;56280;49.662;8.408;2024-02-28T12:04:12;101314.75;;;10.20;100.00
69173;BME280;56280;49.662;8.408;2024-02-28T12:06:38;101286.16;;;9.57;100.00
69173;BME280;56280;49.662;8.408;2024-02-28T12:09:08;101260.88;;;8.81;100.00
69173;BME280;56280;49.662;8.408;2024-02-28T12:11:35;101298.88;;;9.37;100.00
69173;BME280;56280;49.662;8.408;2024-02-28T12:14:04;101299.84;;;8.48;100.00
69173;BME280;56280;49.662;8.408;2024-02-28T12:16:37;101260.16;;;8.18;100.00
69173;BME280;56280;49.662;8.408;2024-02-28T12:19:12;101327.31;;;8.92;100.00
69173;BME280;56280;49.662;8.408;2024-02-28T12:21:41;101320.19;;;9.50;100.00
69173;BME280;56280;49.662;8.408;2024-02-28T12:24:07;101316.66;;;9.49;100.00
69173;BME280;56280;49.662;8.408;2024-02-28T12:26:34;101309.59;;;9.36;100.00
69173;BME280;56280;49.662;8.408;2024-02-28T12:28:59;101308.25;;;9.43;100.00
69173;BME280;56280;49.662;8.408;2024-02-28T12:31:24;101309.16;;;9.56;99.67
69173;BME280;56280;49.662;8.408;2024-02-28T12:33:50;101304.56;;;9.87;100.00
69173;BME280;56280;49.662;8.408;2024-02-28T12:36:15;101302.88;;;9.72;98.90
69173;BME280;56280;49.662;8.408;2024-02-28T12:38:40;101255.41;;;9.94;100.00
69173;BME280;56280;49.662;8.408;2024-02-28T12:41:06;101278.81;;;10.42;100.00
69173;BME280;56280;49.662;8.408;2024-02-28T12:43:32;101289.38;;;10.56;96.58